sensor_id;sensor_type;location;lat;lon;timestamp;P1;durP1;ratioP1;P2;durP2;ratioP2
5379;SDS011;2713;42.680;23.310;2024-02-04T00:02:05;3.90;;;3.60;;
5379;SDS011;2713;42.680;23.310;2024-02-04T00:04:33;3.97;;;3.33;;
5379;SDS011;2713;42.680;23.310;2024-02-04T00:07:01;6.37;;;3.33;;
5379;SDS011;2713;42.680;23.310;2024-02-04T00:09:27;3.80;;;3.57;;
5379;SDS011;2713;42.680;23.310;2024-02-04T00:11:54;3.80;;;3.47;;
5379;SDS011;2713;42.680;23.310;2024-02-04T00:14:21;4.50;;;3.73;;
5379;SDS011;2713;42.680;23.310;2024-02-04T00:16:48;4.27;;;3.87;;
5379;SDS011;2713;42.680;23.310;2024-02-04T00:19:14;4.13;;;3.73;;
5379;SDS011;2713;42.680;23.310;2024-02-04T00:21:42;5.37;;;4.30;;
5379;SDS011;2713;42.680;23.310;2024-02-04T00:24:09;3.97;;;3.57;;
5379;SDS011;2713;42.680;23.310;2024-02-04T00:26:36;4.20;;;3.80;;
5379;SDS011;2713;42.680;23.310;2024-02-04T00:29:03;3.97;;;3.57;;
5379;SDS011;2713;42.680;23.310;2024-02-04T00:31:30;4.83;;;4.17;;
5379;SDS011;2713;42.680;23.310;2024-02-04T00:33:56;4.20;;;3.80;;
5379;SDS011;2713;42.680;23.310;2024-02-04T00:36:23;4.50;;;4.00;;
5379;SDS011;2713;42.680;23.310;2024-02-04T00:38:51;3.87;;;3.60;;
5379;SDS011;2713;42.680;23.310;2024-02-04T00:41:18;3.87;;;3.57;;
5379;SDS011;2713;42.680;23.310;2024-02-04T00:43:45;4.70;;;4.30;;
5379;SDS011;2713;42.680;23.310;2024-02-04T00:46:12;4.57;;;4.17;;
5379;SDS011;2713;42.680;23.310;2024-02-04T00:48:39;4.47;;;3.93;;
5379;SDS011;2713;42.680;23.310;2024-02-04T00:51:06;3.37;;;3.17;;
5379;SDS011;2713;42.680;23.310;2024-02-04T00:53:32;4.30;;;3.90;;
5379;SDS011;2713;42.680;23.310;2024-02-04T00:56:01;4.43;;;4.03;;
5379;SDS011;2713;42.680;23.310;2024-02-04T00:58:29;3.80;;;3.50;;
5379;SDS011;2713;42.680;23.310;2024-02-04T01:00:56;4.30;;;4.00;;
5379;SDS011;2713;42.680;23.310;2024-02-04T01:03:23;4.50;;;4.07;;
5379;SDS011;2713;42.680;23.310;2024-02-04T01:05:50;4.47;;;4.13;;
5379;SDS011;2713;42.680;23.310;2024-02-04T01:08:17;4.87;;;4.17;;
5379;SDS011;2713;42.680;23.310;2024-02-04T01:10:44;4.07;;;3.63;;
5379;SDS011;2713;42.680;23.310;2024-02-04T01:13:12;4.73;;;3.50;;
5379;SDS011;2713;42.680;23.310;2024-02-04T01:15:38;3.90;;;3.50;;
5379;SDS011;2713;42.680;23.310;2024-02-04T01:18:05;3.90;;;3.60;;
5379;SDS011;2713;42.680;23.310;2024-02-04T01:20:32;4.30;;;3.90;;
5379;SDS011;2713;42.680;23.310;2024-02-04T01:22:59;5.87;;;4.27;;
5379;SDS011;2713;42.680;23.310;2024-02-04T01:25:25;4.40;;;4.03;;
5379;SDS011;2713;42.680;23.310;2024-02-04T01:27:52;8.40;;;4.20;;
5379;SDS011;2713;42.680;23.310;2024-02-04T01:30:21;4.13;;;3.77;;
5379;SDS011;2713;42.680;23.310;2024-02-04T01:32:48;3.23;;;3.03;;
5379;SDS011;2713;42.680;23.310;2024-02-04T01:35:15;3.60;;;3.30;;
5379;SDS011;2713;42.680;23.310;2024-02-04T01:37:42;5.43;;;3.80;;
5379;SDS011;2713;42.680;23.310;2024-02-04T01:40:09;4.80;;;4.03;;
5379;SDS011;2713;42.680;23.310;2024-02-04T01:42:37;3.63;;;3.30;;
5379;SDS011;2713;42.680;23.310;2024-02-04T01:45:04;5.80;;;3.37;;
5379;SDS011;2713;42.680;23.310;2024-02-04T01:47:34;3.77;;;3.43;;
5379;SDS011;2713;42.680;23.310;2024-02-04T01:50:01;4.00;;;3.43;;
5379;SDS011;2713;42.680;23.310;2024-02-04T01:52:29;3.73;;;3.43;;
5379;SDS011;2713;42.680;23.310;2024-02-04T01:54:58;3.90;;;3.13;;
5379;SDS011;2713;42.680;23.310;2024-02-04T01:57:26;4.80;;;3.30;;
5379;SDS011;2713;42.680;23.310;2024-02-04T01:59:53;3.83;;;3.00;;
5379;SDS011;2713;42.680;23.310;2024-02-04T02:02:22;3.23;;;2.93;;
5379;SDS011;2713;42.680;23.310;2024-02-04T02:04:51;3.57;;;3.27;;
5379;SDS011;2713;42.680;23.310;2024-02-04T02:07:18;3.53;;;3.10;;
5379;SDS011;2713;42.680;23.310;2024-02-04T02:09:46;3.00;;;2.80;;
5379;SDS011;2713;42.680;23.310;2024-02-04T02:12:13;3.20;;;3.00;;
5379;SDS011;2713;42.680;23.310;2024-02-04T02:14:44;3.60;;;3.30;;
5379;SDS011;2713;42.680;23.310;2024-02-04T02:17:16;3.83;;;3.30;;
5379;SDS011;2713;42.680;23.310;2024-02-04T02:19:54;3.40;;;3.10;;
5379;SDS011;2713;42.680;23.310;2024-02-04T02:22:29;3.90;;;3.50;;
5379;SDS011;2713;42.680;23.310;2024-02-04T02:25:05;5.20;;;3.47;;
5379;SDS011;2713;42.680;23.310;2024-02-04T02:27:33;3.20;;;2.97;;
5379;SDS011;2713;42.680;23.310;2024-02-04T02:30:00;3.20;;;3.00;;
5379;SDS011;2713;42.680;23.310;2024-02-04T02:32:28;2.90;;;2.70;;
5379;SDS011;2713;42.680;23.310;2024-02-04T02:34:54;3.80;;;3.00;;
5379;SDS011;2713;42.680;23.310;2024-02-04T02:37:23;4.40;;;3.53;;
5379;SDS011;2713;42.680;23.310;2024-02-04T02:39:56;3.20;;;3.00;;
5379;SDS011;2713;42.680;23.310;2024-02-04T02:42:28;4.20;;;2.90;;
5379;SDS011;2713;42.680;23.310;2024-02-04T02:44:57;3.30;;;3.00;;
5379;SDS011;2713;42.680;23.310;2024-02-04T02:47:25;3.23;;;2.97;;
5379;SDS011;2713;42.680;23.310;2024-02-04T02:49:53;3.03;;;2.83;;
5379;SDS011;2713;42.680;23.310;2024-02-04T02:52:20;3.80;;;3.50;;
5379;SDS011;2713;42.680;23.310;2024-02-04T02:54:47;3.90;;;3.60;;
5379;SDS011;2713;42.680;23.310;2024-02-04T02:57:14;3.70;;;3.40;;
5379;SDS011;2713;42.680;23.310;2024-02-04T02:59:42;3.47;;;3.17;;
5379;SDS011;2713;42.680;23.310;2024-02-04T03:02:09;3.40;;;3.17;;
5379;SDS011;2713;42.680;23.310;2024-02-04T03:04:36;3.77;;;3.40;;
5379;SDS011;2713;42.680;23.310;2024-02-04T03:07:03;5.40;;;3.53;;
5379;SDS011;2713;42.680;23.310;2024-02-04T03:09:31;4.00;;;3.20;;
5379;SDS011;2713;42.680;23.310;2024-02-04T03:11:58;3.70;;;3.40;;
5379;SDS011;2713;42.680;23.310;2024-02-04T03:14:25;3.70;;;3.40;;
5379;SDS011;2713;42.680;23.310;2024-02-04T03:16:53;3.93;;;3.00;;
5379;SDS011;2713;42.680;23.310;2024-02-04T03:19:20;3.43;;;3.13;;
5379;SDS011;2713;42.680;23.310;2024-02-04T03:21:46;3.93;;;3.10;;
5379;SDS011;2713;42.680;23.310;2024-02-04T03:24:14;5.20;;;3.30;;
5379;SDS011;2713;42.680;23.310;2024-02-04T03:26:41;3.50;;;3.20;;
5379;SDS011;2713;42.680;23.310;2024-02-04T03:29:08;3.53;;;3.23;;
5379;SDS011;2713;42.680;23.310;2024-02-04T03:31:35;4.03;;;3.27;;
5379;SDS011;2713;42.680;23.310;2024-02-04T03:34:03;3.47;;;3.27;;
5379;SDS011;2713;42.680;23.310;2024-02-04T03:36:30;3.53;;;3.20;;
5379;SDS011;2713;42.680;23.310;2024-02-04T03:38:57;3.07;;;2.87;;
5379;SDS011;2713;42.680;23.310;2024-02-04T03:41:24;3.43;;;3.13;;
5379;SDS011;2713;42.680;23.310;2024-02-04T03:43:51;2.90;;;2.70;;
5379;SDS011;2713;42.680;23.310;2024-02-04T03:46:18;3.30;;;3.10;;
5379;SDS011;2713;42.680;23.310;2024-02-04T03:48:44;2.97;;;2.77;;
5379;SDS011;2713;42.680;23.310;2024-02-04T03:51:16;3.37;;;3.13;;
5379;SDS011;2713;42.680;23.310;2024-02-04T03:53:43;5.47;;;3.00;;
5379;SDS011;2713;42.680;23.310;2024-02-04T03:56:10;3.33;;;3.03;;
5379;SDS011;2713;42.680;23.310;2024-02-04T03:58:36;3.13;;;2.93;;
5379;SDS011;2713;42.680;23.310;2024-02-04T04:01:03;3.40;;;3.20;;
5379;SDS011;2713;42.680;23.310;2024-02-04T04:03:30;2.80;;;2.60;;
5379;SDS011;2713;42.680;23.310;2024-02-04T04:05:57;3.63;;;2.70;;
5379;SDS011;2713;42.680;23.310;2024-02-04T04:08:25;3.10;;;2.90;;
5379;SDS011;2713;42.680;23.310;2024-02-04T04:10:52;3.17;;;2.87;;
5379;SDS011;2713;42.680;23.310;2024-02-04T04:13:19;3.13;;;2.93;;
5379;SDS011;2713;42.680;23.310;2024-02-04T04:15:45;2.97;;;2.77;;
5379;SDS011;2713;42.680;23.310;2024-02-04T04:18:11;3.10;;;2.90;;
5379;SDS011;2713;42.680;23.310;2024-02-04T04:20:38;3.40;;;3.10;;
5379;SDS011;2713;42.680;23.310;2024-02-04T04:23:05;4.43;;;3.10;;
5379;SDS011;2713;42.680;23.310;2024-02-04T04:25:33;3.00;;;2.87;;
5379;SDS011;2713;42.680;23.310;2024-02-04T04:28:00;3.00;;;2.80;;
5379;SDS011;2713;42.680;23.310;2024-02-04T04:30:27;3.33;;;3.00;;
5379;SDS011;2713;42.680;23.310;2024-02-04T04:32:54;5.20;;;2.77;;
5379;SDS011;2713;42.680;23.310;2024-02-04T04:35:21;3.27;;;2.97;;
5379;SDS011;2713;42.680;23.310;2024-02-04T04:37:47;4.13;;;3.80;;
5379;SDS011;2713;42.680;23.310;2024-02-04T04:40:14;3.33;;;3.00;;
5379;SDS011;2713;42.680;23.310;2024-02-04T04:42:42;3.20;;;3.00;;
5379;SDS011;2713;42.680;23.310;2024-02-04T04:45:10;5.33;;;3.10;;
5379;SDS011;2713;42.680;23.310;2024-02-04T04:47:37;3.33;;;3.03;;
5379;SDS011;2713;42.680;23.310;2024-02-04T04:50:05;3.20;;;3.00;;
5379;SDS011;2713;42.680;23.310;2024-02-04T04:52:32;2.83;;;2.63;;
5379;SDS011;2713;42.680;23.310;2024-02-04T04:54:59;3.13;;;2.87;;
5379;SDS011;2713;42.680;23.310;2024-02-04T04:57:26;2.60;;;2.40;;
5379;SDS011;2713;42.680;23.310;2024-02-04T04:59:54;3.03;;;2.83;;
5379;SDS011;2713;42.680;23.310;2024-02-04T05:02:21;4.50;;;3.53;;
5379;SDS011;2713;42.680;23.310;2024-02-04T05:04:48;2.87;;;2.47;;
5379;SDS011;2713;42.680;23.310;2024-02-04T05:07:14;3.70;;;3.03;;
5379;SDS011;2713;42.680;23.310;2024-02-04T05:09:41;3.30;;;3.10;;
5379;SDS011;2713;42.680;23.310;2024-02-04T05:12:08;2.77;;;2.57;;
5379;SDS011;2713;42.680;23.310;2024-02-04T05:14:35;3.13;;;2.93;;
5379;SDS011;2713;42.680;23.310;2024-02-04T05:17:03;3.17;;;2.97;;
5379;SDS011;2713;42.680;23.310;2024-02-04T05:19:31;3.00;;;2.70;;
5379;SDS011;2713;42.680;23.310;2024-02-04T05:21:58;2.90;;;2.70;;
5379;SDS011;2713;42.680;23.310;2024-02-04T05:24:24;2.90;;;2.70;;
5379;SDS011;2713;42.680;23.310;2024-02-04T05:26:51;3.10;;;2.90;;
5379;SDS011;2713;42.680;23.310;2024-02-04T05:29:18;2.93;;;2.73;;
5379;SDS011;2713;42.680;23.310;2024-02-04T05:31:45;2.93;;;2.73;;
5379;SDS011;2713;42.680;23.310;2024-02-04T05:34:13;2.63;;;2.43;;
5379;SDS011;2713;42.680;23.310;2024-02-04T05:36:40;2.97;;;2.67;;
5379;SDS011;2713;42.680;23.310;2024-02-04T05:39:10;3.57;;;2.90;;
5379;SDS011;2713;42.680;23.310;2024-02-04T05:41:37;3.53;;;3.13;;
5379;SDS011;2713;42.680;23.310;2024-02-04T05:44:04;3.50;;;3.20;;
5379;SDS011;2713;42.680;23.310;2024-02-04T05:46:31;2.67;;;2.47;;
5379;SDS011;2713;42.680;23.310;2024-02-04T05:48:58;5.53;;;2.90;;
5379;SDS011;2713;42.680;23.310;2024-02-04T05:51:26;3.60;;;3.30;;
5379;SDS011;2713;42.680;23.310;2024-02-04T05:53:53;3.27;;;2.97;;
5379;SDS011;2713;42.680;23.310;2024-02-04T05:56:20;3.37;;;3.07;;
5379;SDS011;2713;42.680;23.310;2024-02-04T05:58:47;3.37;;;2.90;;
5379;SDS011;2713;42.680;23.310;2024-02-04T06:01:15;2.90;;;2.70;;
5379;SDS011;2713;42.680;23.310;2024-02-04T06:03:42;4.20;;;3.10;;
5379;SDS011;2713;42.680;23.310;2024-02-04T06:06:09;3.33;;;2.90;;
5379;SDS011;2713;42.680;23.310;2024-02-04T06:08:41;2.77;;;2.57;;
5379;SDS011;2713;42.680;23.310;2024-02-04T06:11:09;4.50;;;3.23;;
5379;SDS011;2713;42.680;23.310;2024-02-04T06:13:35;5.87;;;3.67;;
5379;SDS011;2713;42.680;23.310;2024-02-04T06:16:02;3.40;;;3.10;;
5379;SDS011;2713;42.680;23.310;2024-02-04T06:18:29;3.40;;;3.17;;
5379;SDS011;2713;42.680;23.310;2024-02-04T06:20:56;4.17;;;3.27;;
5379;SDS011;2713;42.680;23.310;2024-02-04T06:23:23;3.37;;;3.17;;
5379;SDS011;2713;42.680;23.310;2024-02-04T06:25:51;5.10;;;3.50;;
5379;SDS011;2713;42.680;23.310;2024-02-04T06:28:17;3.80;;;3.50;;
5379;SDS011;2713;42.680;23.310;2024-02-04T06:30:44;3.37;;;3.10;;
5379;SDS011;2713;42.680;23.310;2024-02-04T06:33:11;3.33;;;3.07;;
5379;SDS011;2713;42.680;23.310;2024-02-04T06:35:38;3.27;;;3.07;;
5379;SDS011;2713;42.680;23.310;2024-02-04T06:38:05;3.07;;;2.80;;
5379;SDS011;2713;42.680;23.310;2024-02-04T06:40:31;3.77;;;3.47;;
5379;SDS011;2713;42.680;23.310;2024-02-04T06:43:00;3.67;;;3.37;;
5379;SDS011;2713;42.680;23.310;2024-02-04T06:45:26;3.83;;;3.50;;
5379;SDS011;2713;42.680;23.310;2024-02-04T06:47:53;3.17;;;2.90;;
5379;SDS011;2713;42.680;23.310;2024-02-04T06:50:20;3.63;;;3.30;;
5379;SDS011;2713;42.680;23.310;2024-02-04T06:52:47;3.70;;;3.40;;
5379;SDS011;2713;42.680;23.310;2024-02-04T06:55:14;3.60;;;3.30;;
5379;SDS011;2713;42.680;23.310;2024-02-04T06:57:41;3.70;;;3.40;;
5379;SDS011;2713;42.680;23.310;2024-02-04T07:00:09;3.93;;;3.50;;
5379;SDS011;2713;42.680;23.310;2024-02-04T07:02:37;3.50;;;3.20;;
5379;SDS011;2713;42.680;23.310;2024-02-04T07:05:04;3.80;;;3.47;;
5379;SDS011;2713;42.680;23.310;2024-02-04T07:07:31;3.47;;;2.87;;
5379;SDS011;2713;42.680;23.310;2024-02-04T07:09:59;4.10;;;3.10;;
5379;SDS011;2713;42.680;23.310;2024-02-04T07:12:25;3.30;;;3.10;;
5379;SDS011;2713;42.680;23.310;2024-02-04T07:14:52;2.93;;;2.73;;
5379;SDS011;2713;42.680;23.310;2024-02-04T07:17:20;4.03;;;3.63;;
5379;SDS011;2713;42.680;23.310;2024-02-04T07:19:47;5.93;;;3.17;;
5379;SDS011;2713;42.680;23.310;2024-02-04T07:22:14;4.70;;;3.10;;
5379;SDS011;2713;42.680;23.310;2024-02-04T07:24:41;3.40;;;3.20;;
5379;SDS011;2713;42.680;23.310;2024-02-04T07:27:08;4.20;;;3.80;;
5379;SDS011;2713;42.680;23.310;2024-02-04T07:29:34;4.50;;;3.40;;
5379;SDS011;2713;42.680;23.310;2024-02-04T07:32:01;4.10;;;3.70;;
5379;SDS011;2713;42.680;23.310;2024-02-04T07:34:29;3.60;;;3.30;;
5379;SDS011;2713;42.680;23.310;2024-02-04T07:36:56;7.77;;;4.00;;
5379;SDS011;2713;42.680;23.310;2024-02-04T07:39:23;5.83;;;3.70;;
5379;SDS011;2713;42.680;23.310;2024-02-04T07:41:50;5.07;;;3.10;;
5379;SDS011;2713;42.680;23.310;2024-02-04T07:44:19;3.10;;;2.90;;
5379;SDS011;2713;42.680;23.310;2024-02-04T07:46:45;4.17;;;3.77;;
5379;SDS011;2713;42.680;23.310;2024-02-04T07:49:12;3.20;;;3.00;;
5379;SDS011;2713;42.680;23.310;2024-02-04T07:51:40;3.50;;;3.20;;
5379;SDS011;2713;42.680;23.310;2024-02-04T07:54:07;5.53;;;3.33;;
5379;SDS011;2713;42.680;23.310;2024-02-04T07:56:34;3.20;;;2.90;;
5379;SDS011;2713;42.680;23.310;2024-02-04T07:59:01;3.83;;;3.40;;
5379;SDS011;2713;42.680;23.310;2024-02-04T08:01:28;3.40;;;3.17;;
5379;SDS011;2713;42.680;23.310;2024-02-04T08:03:55;2.73;;;2.53;;
5379;SDS011;2713;42.680;23.310;2024-02-04T08:06:22;3.73;;;2.97;;
5379;SDS011;2713;42.680;23.310;2024-02-04T08:08:50;3.77;;;3.00;;
5379;SDS011;2713;42.680;23.310;2024-02-04T08:11:17;3.10;;;2.80;;
5379;SDS011;2713;42.680;23.310;2024-02-04T08:13:44;2.80;;;2.60;;
5379;SDS011;2713;42.680;23.310;2024-02-04T08:16:11;3.67;;;2.60;;
5379;SDS011;2713;42.680;23.310;2024-02-04T08:18:38;3.13;;;2.93;;
5379;SDS011;2713;42.680;23.310;2024-02-04T08:21:04;4.10;;;3.27;;
5379;SDS011;2713;42.680;23.310;2024-02-04T08:23:32;2.57;;;2.37;;
5379;SDS011;2713;42.680;23.310;2024-02-04T08:26:00;3.17;;;2.87;;
5379;SDS011;2713;42.680;23.310;2024-02-04T08:28:27;3.43;;;3.03;;
5379;SDS011;2713;42.680;23.310;2024-02-04T08:30:54;3.10;;;2.80;;
5379;SDS011;2713;42.680;23.310;2024-02-04T08:33:21;3.37;;;3.07;;
5379;SDS011;2713;42.680;23.310;2024-02-04T08:35:48;3.13;;;2.47;;
5379;SDS011;2713;42.680;23.310;2024-02-04T08:38:15;3.10;;;2.80;;
5379;SDS011;2713;42.680;23.310;2024-02-04T08:40:41;5.17;;;2.60;;
5379;SDS011;2713;42.680;23.310;2024-02-04T08:43:10;3.00;;;2.57;;
5379;SDS011;2713;42.680;23.310;2024-02-04T08:45:36;2.47;;;2.20;;
5379;SDS011;2713;42.680;23.310;2024-02-04T08:48:03;2.60;;;2.40;;
5379;SDS011;2713;42.680;23.310;2024-02-04T08:50:30;11.40;;;3.50;;
5379;SDS011;2713;42.680;23.310;2024-02-04T08:52:57;3.60;;;2.90;;
5379;SDS011;2713;42.680;23.310;2024-02-04T08:55:24;2.93;;;2.30;;
5379;SDS011;2713;42.680;23.310;2024-02-04T08:57:51;5.27;;;2.53;;
5379;SDS011;2713;42.680;23.310;2024-02-04T09:00:20;11.40;;;3.43;;
5379;SDS011;2713;42.680;23.310;2024-02-04T09:02:47;3.37;;;2.20;;
5379;SDS011;2713;42.680;23.310;2024-02-04T09:05:14;2.83;;;2.60;;
5379;SDS011;2713;42.680;23.310;2024-02-04T09:07:43;2.97;;;2.67;;
5379;SDS011;2713;42.680;23.310;2024-02-04T09:10:10;2.87;;;2.67;;
5379;SDS011;2713;42.680;23.310;2024-02-04T09:12:37;3.93;;;2.50;;
5379;SDS011;2713;42.680;23.310;2024-02-04T09:15:04;7.03;;;2.67;;
5379;SDS011;2713;42.680;23.310;2024-02-04T09:17:33;3.00;;;2.47;;
5379;SDS011;2713;42.680;23.310;2024-02-04T09:20:00;2.87;;;2.67;;
5379;SDS011;2713;42.680;23.310;2024-02-04T09:22:27;8.67;;;2.97;;
5379;SDS011;2713;42.680;23.310;2024-02-04T09:24:54;3.00;;;2.53;;
5379;SDS011;2713;42.680;23.310;2024-02-04T09:27:21;3.20;;;2.50;;
5379;SDS011;2713;42.680;23.310;2024-02-04T09:29:47;5.83;;;3.10;;
5379;SDS011;2713;42.680;23.310;2024-02-04T09:32:14;3.63;;;2.47;;
5379;SDS011;2713;42.680;23.310;2024-02-04T09:34:42;2.80;;;2.60;;
5379;SDS011;2713;42.680;23.310;2024-02-04T09:37:09;2.50;;;1.93;;
5379;SDS011;2713;42.680;23.310;2024-02-04T09:39:36;1.90;;;1.80;;
5379;SDS011;2713;42.680;23.310;2024-02-04T09:42:03;2.20;;;2.10;;
5379;SDS011;2713;42.680;23.310;2024-02-04T09:44:30;4.33;;;2.47;;
5379;SDS011;2713;42.680;23.310;2024-02-04T09:46:58;2.43;;;2.23;;
5379;SDS011;2713;42.680;23.310;2024-02-04T09:49:26;3.20;;;2.50;;
5379;SDS011;2713;42.680;23.310;2024-02-04T09:51:56;3.07;;;2.87;;
5379;SDS011;2713;42.680;23.310;2024-02-04T09:54:25;3.20;;;2.90;;
5379;SDS011;2713;42.680;23.310;2024-02-04T09:56:55;3.20;;;2.90;;
5379;SDS011;2713;42.680;23.310;2024-02-04T09:59:22;7.80;;;2.70;;
5379;SDS011;2713;42.680;23.310;2024-02-04T10:01:48;2.80;;;2.60;;
5379;SDS011;2713;42.680;23.310;2024-02-04T10:04:15;3.43;;;2.23;;
5379;SDS011;2713;42.680;23.310;2024-02-04T10:06:42;2.93;;;2.40;;
5379;SDS011;2713;42.680;23.310;2024-02-04T10:09:11;2.57;;;2.37;;
5379;SDS011;2713;42.680;23.310;2024-02-04T10:11:37;2.77;;;1.97;;
5379;SDS011;2713;42.680;23.310;2024-02-04T10:14:04;4.87;;;1.90;;
5379;SDS011;2713;42.680;23.310;2024-02-04T10:16:32;3.10;;;2.10;;
5379;SDS011;2713;42.680;23.310;2024-02-04T10:19:02;4.50;;;2.63;;
5379;SDS011;2713;42.680;23.310;2024-02-04T10:21:28;3.90;;;3.03;;
5379;SDS011;2713;42.680;23.310;2024-02-04T10:23:56;3.73;;;2.33;;
5379;SDS011;2713;42.680;23.310;2024-02-04T10:26:27;2.40;;;2.20;;
5379;SDS011;2713;42.680;23.310;2024-02-04T10:28:57;3.17;;;2.43;;
5379;SDS011;2713;42.680;23.310;2024-02-04T10:31:24;2.10;;;1.90;;
5379;SDS011;2713;42.680;23.310;2024-02-04T10:33:52;2.87;;;2.50;;
5379;SDS011;2713;42.680;23.310;2024-02-04T10:36:18;4.00;;;2.23;;
5379;SDS011;2713;42.680;23.310;2024-02-04T10:38:45;4.03;;;2.20;;
5379;SDS011;2713;42.680;23.310;2024-02-04T10:41:14;2.60;;;2.40;;
5379;SDS011;2713;42.680;23.310;2024-02-04T10:43:43;4.50;;;3.30;;
5379;SDS011;2713;42.680;23.310;2024-02-04T10:46:12;4.00;;;3.07;;
5379;SDS011;2713;42.680;23.310;2024-02-04T10:48:41;3.00;;;2.80;;
5379;SDS011;2713;42.680;23.310;2024-02-04T10:51:13;2.00;;;1.90;;
5379;SDS011;2713;42.680;23.310;2024-02-04T10:53:41;2.20;;;2.00;;
5379;SDS011;2713;42.680;23.310;2024-02-04T10:56:11;2.50;;;2.30;;
5379;SDS011;2713;42.680;23.310;2024-02-04T10:58:41;2.17;;;2.07;;
5379;SDS011;2713;42.680;23.310;2024-02-04T11:01:11;2.80;;;2.20;;
5379;SDS011;2713;42.680;23.310;2024-02-04T11:03:38;2.27;;;2.07;;
5379;SDS011;2713;42.680;23.310;2024-02-04T11:06:07;2.53;;;2.20;;
5379;SDS011;2713;42.680;23.310;2024-02-04T11:08:34;2.40;;;2.20;;
5379;SDS011;2713;42.680;23.310;2024-02-04T11:11:01;2.00;;;1.90;;
5379;SDS011;2713;42.680;23.310;2024-02-04T11:13:28;2.10;;;1.90;;
5379;SDS011;2713;42.680;23.310;2024-02-04T11:15:57;2.10;;;1.93;;
5379;SDS011;2713;42.680;23.310;2024-02-04T11:18:35;4.70;;;2.20;;
5379;SDS011;2713;42.680;23.310;2024-02-04T11:21:18;2.10;;;2.00;;
5379;SDS011;2713;42.680;23.310;2024-02-04T11:24:02;3.13;;;1.87;;
5379;SDS011;2713;42.680;23.310;2024-02-04T11:26:40;2.80;;;1.87;;
5379;SDS011;2713;42.680;23.310;2024-02-04T11:29:07;2.67;;;2.20;;
5379;SDS011;2713;42.680;23.310;2024-02-04T11:31:38;2.47;;;2.27;;
5379;SDS011;2713;42.680;23.310;2024-02-04T11:34:05;2.30;;;2.20;;
5379;SDS011;2713;42.680;23.310;2024-02-04T11:36:37;3.43;;;3.13;;
5379;SDS011;2713;42.680;23.310;2024-02-04T11:39:10;2.80;;;2.00;;
5379;SDS011;2713;42.680;23.310;2024-02-04T11:41:44;2.83;;;2.30;;
5379;SDS011;2713;42.680;23.310;2024-02-04T11:44:12;2.60;;;2.40;;
5379;SDS011;2713;42.680;23.310;2024-02-04T11:46:47;1.80;;;1.70;;
5379;SDS011;2713;42.680;23.310;2024-02-04T11:49:14;2.37;;;2.27;;
5379;SDS011;2713;42.680;23.310;2024-02-04T11:51:44;2.40;;;2.17;;
5379;SDS011;2713;42.680;23.310;2024-02-04T11:54:11;3.27;;;2.03;;
5379;SDS011;2713;42.680;23.310;2024-02-04T11:56:41;2.50;;;2.30;;
5379;SDS011;2713;42.680;23.310;2024-02-04T11:59:08;2.17;;;2.03;;
5379;SDS011;2713;42.680;23.310;2024-02-04T12:01:35;2.33;;;1.90;;
5379;SDS011;2713;42.680;23.310;2024-02-04T12:04:10;2.40;;;2.20;;
5379;SDS011;2713;42.680;23.310;2024-02-04T12:06:37;2.10;;;2.00;;
5379;SDS011;2713;42.680;23.310;2024-02-04T12:09:05;2.20;;;2.00;;
5379;SDS011;2713;42.680;23.310;2024-02-04T12:11:33;2.30;;;2.10;;
5379;SDS011;2713;42.680;23.310;2024-02-04T12:14:01;2.20;;;2.10;;
5379;SDS011;2713;42.680;23.310;2024-02-04T12:16:30;2.40;;;2.30;;
5379;SDS011;2713;42.680;23.310;2024-02-04T12:18:59;3.07;;;2.77;;
5379;SDS011;2713;42.680;23.310;2024-02-04T12:21:27;3.20;;;2.83;;
5379;SDS011;2713;42.680;23.310;2024-02-04T12:23:54;3.00;;;2.80;;
5379;SDS011;2713;42.680;23.310;2024-02-04T12:26:22;5.37;;;3.07;;
5379;SDS011;2713;42.680;23.310;2024-02-04T12:28:49;2.27;;;2.17;;
5379;SDS011;2713;42.680;23.310;2024-02-04T12:31:17;3.67;;;3.23;;
5379;SDS011;2713;42.680;23.310;2024-02-04T12:33:51;3.70;;;3.40;;
5379;SDS011;2713;42.680;23.310;2024-02-04T12:36:19;5.87;;;3.40;;
5379;SDS011;2713;42.680;23.310;2024-02-04T12:38:51;3.10;;;2.90;;
5379;SDS011;2713;42.680;23.310;2024-02-04T12:41:18;2.37;;;2.20;;
5379;SDS011;2713;42.680;23.310;2024-02-04T12:43:48;4.80;;;3.83;;
5379;SDS011;2713;42.680;23.310;2024-02-04T12:46:16;4.63;;;2.60;;
5379;SDS011;2713;42.680;23.310;2024-02-04T12:48:43;2.20;;;2.10;;
5379;SDS011;2713;42.680;23.310;2024-02-04T12:51:09;2.77;;;2.57;;
5379;SDS011;2713;42.680;23.310;2024-02-04T12:53:37;2.60;;;2.50;;
5379;SDS011;2713;42.680;23.310;2024-02-04T12:56:05;2.77;;;2.57;;
5379;SDS011;2713;42.680;23.310;2024-02-04T12:58:32;2.80;;;2.60;;
5379;SDS011;2713;42.680;23.310;2024-02-04T13:01:08;2.60;;;2.40;;
5379;SDS011;2713;42.680;23.310;2024-02-04T13:03:36;2.20;;;2.10;;
5379;SDS011;2713;42.680;23.310;2024-02-04T13:06:02;2.13;;;2.03;;
5379;SDS011;2713;42.680;23.310;2024-02-04T13:08:29;2.17;;;2.00;;
5379;SDS011;2713;42.680;23.310;2024-02-04T13:10:57;2.37;;;2.17;;
5379;SDS011;2713;42.680;23.310;2024-02-04T13:13:25;2.90;;;2.70;;
5379;SDS011;2713;42.680;23.310;2024-02-04T13:15:53;2.47;;;2.30;;
5379;SDS011;2713;42.680;23.310;2024-02-04T13:18:21;3.13;;;2.93;;
5379;SDS011;2713;42.680;23.310;2024-02-04T13:20:48;3.30;;;3.10;;
5379;SDS011;2713;42.680;23.310;2024-02-04T13:23:15;2.90;;;2.70;;
5379;SDS011;2713;42.680;23.310;2024-02-04T13:25:41;2.70;;;2.50;;
5379;SDS011;2713;42.680;23.310;2024-02-04T13:28:09;2.57;;;2.40;;
5379;SDS011;2713;42.680;23.310;2024-02-04T13:30:37;2.30;;;2.20;;
5379;SDS011;2713;42.680;23.310;2024-02-04T13:33:04;2.30;;;2.20;;
5379;SDS011;2713;42.680;23.310;2024-02-04T13:35:31;2.70;;;2.50;;
5379;SDS011;2713;42.680;23.310;2024-02-04T13:37:58;2.40;;;2.20;;
5379;SDS011;2713;42.680;23.310;2024-02-04T13:40:24;2.47;;;2.33;;
5379;SDS011;2713;42.680;23.310;2024-02-04T13:42:51;2.53;;;2.33;;
5379;SDS011;2713;42.680;23.310;2024-02-04T13:45:18;2.40;;;2.30;;
5379;SDS011;2713;42.680;23.310;2024-02-04T13:47:47;2.60;;;2.50;;
5379;SDS011;2713;42.680;23.310;2024-02-04T13:50:14;2.53;;;2.33;;
5379;SDS011;2713;42.680;23.310;2024-02-04T13:52:41;2.50;;;2.30;;
5379;SDS011;2713;42.680;23.310;2024-02-04T13:55:08;2.33;;;2.23;;
5379;SDS011;2713;42.680;23.310;2024-02-04T13:57:35;3.00;;;2.80;;
5379;SDS011;2713;42.680;23.310;2024-02-04T14:00:02;3.20;;;2.80;;
5379;SDS011;2713;42.680;23.310;2024-02-04T14:02:31;4.00;;;3.00;;
5379;SDS011;2713;42.680;23.310;2024-02-04T14:05:00;2.67;;;2.47;;
5379;SDS011;2713;42.680;23.310;2024-02-04T14:07:27;3.13;;;2.87;;
5379;SDS011;2713;42.680;23.310;2024-02-04T14:09:53;2.77;;;2.57;;
5379;SDS011;2713;42.680;23.310;2024-02-04T14:12:20;3.17;;;2.97;;
5379;SDS011;2713;42.680;23.310;2024-02-04T14:14:47;2.93;;;2.53;;
5379;SDS011;2713;42.680;23.310;2024-02-04T14:17:14;2.90;;;2.60;;
5379;SDS011;2713;42.680;23.310;2024-02-04T14:19:41;4.40;;;2.53;;
5379;SDS011;2713;42.680;23.310;2024-02-04T14:22:11;3.10;;;2.90;;
5379;SDS011;2713;42.680;23.310;2024-02-04T14:24:38;2.80;;;2.60;;
5379;SDS011;2713;42.680;23.310;2024-02-04T14:27:05;3.20;;;2.90;;
5379;SDS011;2713;42.680;23.310;2024-02-04T14:29:32;3.50;;;3.20;;
5379;SDS011;2713;42.680;23.310;2024-02-04T14:31:59;3.70;;;3.40;;
5379;SDS011;2713;42.680;23.310;2024-02-04T14:34:26;3.20;;;3.00;;
5379;SDS011;2713;42.680;23.310;2024-02-04T14:36:53;3.70;;;3.40;;
5379;SDS011;2713;42.680;23.310;2024-02-04T14:39:21;3.50;;;3.20;;
5379;SDS011;2713;42.680;23.310;2024-02-04T14:41:48;3.47;;;2.87;;
5379;SDS011;2713;42.680;23.310;2024-02-04T14:44:15;3.83;;;3.33;;
5379;SDS011;2713;42.680;23.310;2024-02-04T14:46:42;6.00;;;3.77;;
5379;SDS011;2713;42.680;23.310;2024-02-04T14:49:11;5.40;;;4.30;;
5379;SDS011;2713;42.680;23.310;2024-02-04T14:51:38;6.30;;;4.23;;
5379;SDS011;2713;42.680;23.310;2024-02-04T14:54:05;4.60;;;4.10;;
5379;SDS011;2713;42.680;23.310;2024-02-04T14:56:37;4.77;;;3.97;;
5379;SDS011;2713;42.680;23.310;2024-02-04T14:59:05;4.40;;;4.00;;
5379;SDS011;2713;42.680;23.310;2024-02-04T15:01:32;4.10;;;3.53;;
5379;SDS011;2713;42.680;23.310;2024-02-04T15:04:00;6.17;;;3.67;;